sensor_id;sensor_type;location;lat;lon;timestamp;P1;durP1;ratioP1;P2;durP2;ratioP2
75061;SDS011;63641;46.526;24.612;2023-07-13T00:04:39;10.68;;;9.68;;
75061;SDS011;63641;46.526;24.612;2023-07-13T00:07:06;11.98;;;8.70;;
75061;SDS011;63641;46.526;24.612;2023-07-13T00:09:34;10.18;;;8.93;;
75061;SDS011;63641;46.526;24.612;2023-07-13T00:12:01;9.93;;;8.93;;
75061;SDS011;63641;46.526;24.612;2023-07-13T00:14:28;10.88;;;7.88;;
75061;SDS011;63641;46.526;24.612;2023-07-13T00:16:55;9.77;;;8.88;;
75061;SDS011;63641;46.526;24.612;2023-07-13T00:19:22;10.98;;;9.98;;
75061;SDS011;63641;46.526;24.612;2023-07-13T00:21:49;10.90;;;9.40;;
75061;SDS011;63641;46.526;24.612;2023-07-13T00:24:17;9.38;;;8.23;;
75061;SDS011;63641;46.526;24.612;2023-07-13T00:29:17;13.07;;;11.93;;
75061;SDS011;63641;46.526;24.612;2023-07-13T00:31:43;10.77;;;9.68;;
75061;SDS011;63641;46.526;24.612;2023-07-13T00:34:10;11.13;;;10.00;;
75061;SDS011;63641;46.526;24.612;2023-07-13T00:36:38;9.88;;;8.98;;
75061;SDS011;63641;46.526;24.612;2023-07-13T00:39:04;10.45;;;9.30;;
75061;SDS011;63641;46.526;24.612;2023-07-13T00:41:31;9.57;;;8.68;;
75061;SDS011;63641;46.526;24.612;2023-07-13T00:43:58;12.55;;;9.85;;
75061;SDS011;63641;46.526;24.612;2023-07-13T00:46:27;9.80;;;8.40;;
75061;SDS011;63641;46.526;24.612;2023-07-13T00:48:57;10.55;;;8.93;;
75061;SDS011;63641;46.526;24.612;2023-07-13T00:51:30;9.77;;;8.60;;
75061;SDS011;63641;46.526;24.612;2023-07-13T00:54:04;9.38;;;8.48;;
75061;SDS011;63641;46.526;24.612;2023-07-13T00:56:33;9.32;;;8.40;;
75061;SDS011;63641;46.526;24.612;2023-07-13T00:59:01;8.85;;;7.70;;
75061;SDS011;63641;46.526;24.612;2023-07-13T01:01:32;12.15;;;9.60;;
75061;SDS011;63641;46.526;24.612;2023-07-13T01:03:58;9.70;;;8.70;;
75061;SDS011;63641;46.526;24.612;2023-07-13T01:06:28;9.20;;;8.38;;
75061;SDS011;63641;46.526;24.612;2023-07-13T01:08:56;9.32;;;8.52;;
75061;SDS011;63641;46.526;24.612;2023-07-13T01:11:25;8.73;;;7.78;;
75061;SDS011;63641;46.526;24.612;2023-07-13T01:13:56;9.95;;;8.95;;
75061;SDS011;63641;46.526;24.612;2023-07-13T01:16:27;10.43;;;9.40;;
75061;SDS011;63641;46.526;24.612;2023-07-13T01:21:24;10.27;;;8.15;;
75061;SDS011;63641;46.526;24.612;2023-07-13T01:23:52;8.88;;;7.10;;
75061;SDS011;63641;46.526;24.612;2023-07-13T01:26:18;9.38;;;7.35;;
75061;SDS011;63641;46.526;24.612;2023-07-13T01:28:45;8.27;;;7.40;;
75061;SDS011;63641;46.526;24.612;2023-07-13T01:31:12;13.63;;;9.43;;
75061;SDS011;63641;46.526;24.612;2023-07-13T01:33:39;64.95;;;12.20;;
75061;SDS011;63641;46.526;24.612;2023-07-13T01:36:07;206.23;;;15.50;;
75061;SDS011;63641;46.526;24.612;2023-07-13T01:38:35;88.65;;;14.25;;
75061;SDS011;63641;46.526;24.612;2023-07-13T01:41:03;15.77;;;12.65;;
75061;SDS011;63641;46.526;24.612;2023-07-13T01:43:30;38.70;;;10.52;;
75061;SDS011;63641;46.526;24.612;2023-07-13T01:45:57;58.85;;;11.88;;
75061;SDS011;63641;46.526;24.612;2023-07-13T01:48:43;11.43;;;10.52;;
75061;SDS011;63641;46.526;24.612;2023-07-13T01:51:10;39.90;;;10.50;;
75061;SDS011;63641;46.526;24.612;2023-07-13T01:53:37;32.88;;;10.52;;
75061;SDS011;63641;46.526;24.612;2023-07-13T01:56:04;29.98;;;11.20;;
75061;SDS011;63641;46.526;24.612;2023-07-13T01:58:30;62.90;;;10.90;;
75061;SDS011;63641;46.526;24.612;2023-07-13T02:00:57;63.03;;;12.10;;
75061;SDS011;63641;46.526;24.612;2023-07-13T02:03:24;14.50;;;10.13;;
75061;SDS011;63641;46.526;24.612;2023-07-13T02:05:51;35.42;;;9.70;;
75061;SDS011;63641;46.526;24.612;2023-07-13T02:08:18;9.50;;;8.73;;
75061;SDS011;63641;46.526;24.612;2023-07-13T02:10:44;9.68;;;8.68;;
75061;SDS011;63641;46.526;24.612;2023-07-13T02:13:11;34.28;;;9.57;;
75061;SDS011;63641;46.526;24.612;2023-07-13T02:15:38;17.85;;;10.02;;
75061;SDS011;63641;46.526;24.612;2023-07-13T02:18:07;10.20;;;9.40;;
75061;SDS011;63641;46.526;24.612;2023-07-13T02:20:34;9.30;;;8.48;;
75061;SDS011;63641;46.526;24.612;2023-07-13T02:23:01;8.75;;;7.88;;
75061;SDS011;63641;46.526;24.612;2023-07-13T02:25:28;8.65;;;7.90;;
75061;SDS011;63641;46.526;24.612;2023-07-13T02:27:55;8.13;;;7.50;;
75061;SDS011;63641;46.526;24.612;2023-07-13T02:30:21;8.15;;;7.28;;
75061;SDS011;63641;46.526;24.612;2023-07-13T02:32:51;7.38;;;6.72;;
75061;SDS011;63641;46.526;24.612;2023-07-13T02:35:18;7.15;;;6.60;;
75061;SDS011;63641;46.526;24.612;2023-07-13T02:37:44;7.70;;;6.90;;
75061;SDS011;63641;46.526;24.612;2023-07-13T02:40:11;7.70;;;7.00;;
75061;SDS011;63641;46.526;24.612;2023-07-13T02:42:38;7.63;;;6.93;;
75061;SDS011;63641;46.526;24.612;2023-07-13T02:45:06;11.55;;;7.10;;
75061;SDS011;63641;46.526;24.612;2023-07-13T02:47:34;7.43;;;6.70;;
75061;SDS011;63641;46.526;24.612;2023-07-13T02:50:01;12.48;;;6.95;;
75061;SDS011;63641;46.526;24.612;2023-07-13T02:52:28;8.75;;;6.85;;
75061;SDS011;63641;46.526;24.612;2023-07-13T02:54:55;13.90;;;8.02;;
75061;SDS011;63641;46.526;24.612;2023-07-13T02:57:21;8.13;;;7.15;;
75061;SDS011;63641;46.526;24.612;2023-07-13T02:59:48;8.60;;;7.80;;
75061;SDS011;63641;46.526;24.612;2023-07-13T03:02:16;8.23;;;7.50;;
75061;SDS011;63641;46.526;24.612;2023-07-13T03:04:42;16.92;;;7.85;;
75061;SDS011;63641;46.526;24.612;2023-07-13T03:07:09;8.43;;;7.70;;
75061;SDS011;63641;46.526;24.612;2023-07-13T03:09:36;9.23;;;7.70;;
75061;SDS011;63641;46.526;24.612;2023-07-13T03:12:03;9.98;;;7.78;;
75061;SDS011;63641;46.526;24.612;2023-07-13T03:14:30;8.82;;;8.02;;
75061;SDS011;63641;46.526;24.612;2023-07-13T03:16:57;8.18;;;7.45;;
75061;SDS011;63641;46.526;24.612;2023-07-13T03:19:23;20.40;;;7.57;;
75061;SDS011;63641;46.526;24.612;2023-07-13T03:21:50;26.15;;;6.93;;
75061;SDS011;63641;46.526;24.612;2023-07-13T03:24:17;36.97;;;8.65;;
75061;SDS011;63641;46.526;24.612;2023-07-13T03:26:44;8.52;;;7.72;;
75061;SDS011;63641;46.526;24.612;2023-07-13T03:29:11;43.50;;;9.05;;
75061;SDS011;63641;46.526;24.612;2023-07-13T03:31:39;9.25;;;8.18;;
75061;SDS011;63641;46.526;24.612;2023-07-13T03:34:06;33.88;;;8.43;;
75061;SDS011;63641;46.526;24.612;2023-07-13T03:36:33;14.02;;;7.70;;
75061;SDS011;63641;46.526;24.612;2023-07-13T03:39:00;56.08;;;8.43;;
75061;SDS011;63641;46.526;24.612;2023-07-13T03:41:29;50.00;;;8.63;;
75061;SDS011;63641;46.526;24.612;2023-07-13T03:43:58;51.20;;;9.85;;
75061;SDS011;63641;46.526;24.612;2023-07-13T03:46:24;25.67;;;8.20;;
75061;SDS011;63641;46.526;24.612;2023-07-13T03:48:51;31.27;;;8.13;;
75061;SDS011;63641;46.526;24.612;2023-07-13T03:51:18;15.13;;;7.43;;
75061;SDS011;63641;46.526;24.612;2023-07-13T03:53:46;7.72;;;7.13;;
75061;SDS011;63641;46.526;24.612;2023-07-13T03:56:14;7.63;;;6.93;;
75061;SDS011;63641;46.526;24.612;2023-07-13T03:58:42;7.50;;;6.93;;
75061;SDS011;63641;46.526;24.612;2023-07-13T04:01:10;7.30;;;6.80;;
75061;SDS011;63641;46.526;24.612;2023-07-13T04:03:38;7.13;;;6.53;;
75061;SDS011;63641;46.526;24.612;2023-07-13T04:06:06;7.88;;;7.28;;
75061;SDS011;63641;46.526;24.612;2023-07-13T04:08:35;7.38;;;6.88;;
75061;SDS011;63641;46.526;24.612;2023-07-13T04:11:03;7.40;;;6.88;;
75061;SDS011;63641;46.526;24.612;2023-07-13T04:13:31;7.95;;;7.25;;
75061;SDS011;63641;46.526;24.612;2023-07-13T04:15:58;17.08;;;8.15;;
75061;SDS011;63641;46.526;24.612;2023-07-13T04:18:25;7.88;;;7.28;;
75061;SDS011;63641;46.526;24.612;2023-07-13T04:20:51;7.85;;;7.15;;
75061;SDS011;63641;46.526;24.612;2023-07-13T04:23:18;7.78;;;7.13;;
75061;SDS011;63641;46.526;24.612;2023-07-13T04:25:45;8.50;;;7.65;;
75061;SDS011;63641;46.526;24.612;2023-07-13T04:28:16;7.97;;;7.38;;
75061;SDS011;63641;46.526;24.612;2023-07-13T04:30:44;8.23;;;7.53;;
75061;SDS011;63641;46.526;24.612;2023-07-13T04:33:11;8.48;;;7.78;;
75061;SDS011;63641;46.526;24.612;2023-07-13T04:35:38;8.65;;;7.82;;
75061;SDS011;63641;46.526;24.612;2023-07-13T04:38:04;9.07;;;8.27;;
75061;SDS011;63641;46.526;24.612;2023-07-13T04:40:32;9.38;;;8.68;;
75061;SDS011;63641;46.526;24.612;2023-07-13T04:42:58;9.15;;;8.35;;
75061;SDS011;63641;46.526;24.612;2023-07-13T04:45:25;8.57;;;7.88;;
75061;SDS011;63641;46.526;24.612;2023-07-13T04:47:52;7.72;;;7.13;;
75061;SDS011;63641;46.526;24.612;2023-07-13T04:50:19;9.35;;;8.55;;
75061;SDS011;63641;46.526;24.612;2023-07-13T04:52:52;9.77;;;8.98;;
75061;SDS011;63641;46.526;24.612;2023-07-13T04:55:19;10.68;;;9.57;;
75061;SDS011;63641;46.526;24.612;2023-07-13T04:57:47;9.95;;;9.15;;
75061;SDS011;63641;46.526;24.612;2023-07-13T05:00:14;9.43;;;8.57;;
75061;SDS011;63641;46.526;24.612;2023-07-13T05:02:43;9.60;;;8.70;;
75061;SDS011;63641;46.526;24.612;2023-07-13T05:05:12;10.75;;;9.85;;
75061;SDS011;63641;46.526;24.612;2023-07-13T05:07:39;10.55;;;9.57;;
75061;SDS011;63641;46.526;24.612;2023-07-13T05:10:06;9.98;;;9.23;;
75061;SDS011;63641;46.526;24.612;2023-07-13T05:12:33;9.98;;;9.27;;
75061;SDS011;63641;46.526;24.612;2023-07-13T05:15:01;11.20;;;10.10;;
75061;SDS011;63641;46.526;24.612;2023-07-13T05:17:28;10.60;;;9.73;;
75061;SDS011;63641;46.526;24.612;2023-07-13T05:19:55;11.32;;;10.32;;
75061;SDS011;63641;46.526;24.612;2023-07-13T05:22:21;11.13;;;10.13;;
75061;SDS011;63641;46.526;24.612;2023-07-13T05:24:48;11.50;;;10.50;;
75061;SDS011;63641;46.526;24.612;2023-07-13T05:27:15;11.85;;;10.95;;
75061;SDS011;63641;46.526;24.612;2023-07-13T05:29:42;12.52;;;11.43;;
75061;SDS011;63641;46.526;24.612;2023-07-13T05:32:08;11.82;;;10.77;;
75061;SDS011;63641;46.526;24.612;2023-07-13T05:34:35;12.18;;;11.07;;
75061;SDS011;63641;46.526;24.612;2023-07-13T05:37:02;12.40;;;11.20;;
75061;SDS011;63641;46.526;24.612;2023-07-13T05:39:29;11.55;;;10.55;;
75061;SDS011;63641;46.526;24.612;2023-07-13T05:41:56;11.13;;;10.27;;
75061;SDS011;63641;46.526;24.612;2023-07-13T05:44:22;11.55;;;10.23;;
75061;SDS011;63641;46.526;24.612;2023-07-13T05:46:49;11.60;;;10.60;;
75061;SDS011;63641;46.526;24.612;2023-07-13T05:49:16;10.68;;;9.85;;
75061;SDS011;63641;46.526;24.612;2023-07-13T05:51:43;11.57;;;10.50;;
75061;SDS011;63641;46.526;24.612;2023-07-13T05:54:10;11.35;;;10.25;;
75061;SDS011;63641;46.526;24.612;2023-07-13T05:56:36;10.98;;;9.10;;
75061;SDS011;63641;46.526;24.612;2023-07-13T05:59:03;10.75;;;9.85;;
75061;SDS011;63641;46.526;24.612;2023-07-13T06:01:30;9.52;;;8.63;;
75061;SDS011;63641;46.526;24.612;2023-07-13T06:03:57;9.38;;;8.57;;
75061;SDS011;63641;46.526;24.612;2023-07-13T06:06:24;9.25;;;8.50;;
75061;SDS011;63641;46.526;24.612;2023-07-13T06:08:54;8.52;;;7.82;;
75061;SDS011;63641;46.526;24.612;2023-07-13T06:11:22;9.20;;;8.40;;
75061;SDS011;63641;46.526;24.612;2023-07-13T06:13:50;9.50;;;7.40;;
75061;SDS011;63641;46.526;24.612;2023-07-13T06:16:18;11.43;;;7.50;;
75061;SDS011;63641;46.526;24.612;2023-07-13T06:18:44;9.18;;;7.43;;
75061;SDS011;63641;46.526;24.612;2023-07-13T06:21:13;8.05;;;7.45;;
75061;SDS011;63641;46.526;24.612;2023-07-13T06:23:42;8.70;;;7.50;;
75061;SDS011;63641;46.526;24.612;2023-07-13T06:26:09;9.10;;;7.20;;
75061;SDS011;63641;46.526;24.612;2023-07-13T06:28:37;8.57;;;7.70;;
75061;SDS011;63641;46.526;24.612;2023-07-13T06:31:05;7.55;;;6.75;;
75061;SDS011;63641;46.526;24.612;2023-07-13T06:33:33;7.18;;;6.57;;
75061;SDS011;63641;46.526;24.612;2023-07-13T06:36:01;7.60;;;6.93;;
75061;SDS011;63641;46.526;24.612;2023-07-13T06:38:29;7.57;;;6.82;;
75061;SDS011;63641;46.526;24.612;2023-07-13T06:40:56;8.43;;;7.07;;
75061;SDS011;63641;46.526;24.612;2023-07-13T06:43:23;7.18;;;6.68;;
75061;SDS011;63641;46.526;24.612;2023-07-13T06:45:51;6.47;;;5.88;;
75061;SDS011;63641;46.526;24.612;2023-07-13T06:48:21;7.80;;;6.68;;
75061;SDS011;63641;46.526;24.612;2023-07-13T06:50:48;6.88;;;6.28;;
75061;SDS011;63641;46.526;24.612;2023-07-13T06:53:19;7.03;;;6.20;;
75061;SDS011;63641;46.526;24.612;2023-07-13T06:55:47;6.30;;;5.70;;
75061;SDS011;63641;46.526;24.612;2023-07-13T06:58:17;6.22;;;5.63;;
75061;SDS011;63641;46.526;24.612;2023-07-13T07:00:45;7.63;;;5.75;;
75061;SDS011;63641;46.526;24.612;2023-07-13T07:03:12;6.63;;;6.03;;
75061;SDS011;63641;46.526;24.612;2023-07-13T07:05:39;6.45;;;5.85;;
75061;SDS011;63641;46.526;24.612;2023-07-13T07:08:06;5.85;;;5.25;;
75061;SDS011;63641;46.526;24.612;2023-07-13T07:10:33;6.90;;;5.30;;
75061;SDS011;63641;46.526;24.612;2023-07-13T07:13:00;6.07;;;5.45;;
75061;SDS011;63641;46.526;24.612;2023-07-13T07:15:27;5.95;;;5.35;;
75061;SDS011;63641;46.526;24.612;2023-07-13T07:17:54;7.45;;;5.47;;
75061;SDS011;63641;46.526;24.612;2023-07-13T07:20:21;6.03;;;5.47;;
75061;SDS011;63641;46.526;24.612;2023-07-13T07:22:48;6.53;;;5.60;;
75061;SDS011;63641;46.526;24.612;2023-07-13T07:25:15;9.07;;;5.40;;
75061;SDS011;63641;46.526;24.612;2023-07-13T07:27:42;6.30;;;5.70;;
75061;SDS011;63641;46.526;24.612;2023-07-13T07:30:12;5.47;;;4.95;;
75061;SDS011;63641;46.526;24.612;2023-07-13T07:32:42;5.20;;;4.72;;
75061;SDS011;63641;46.526;24.612;2023-07-13T07:35:22;6.78;;;5.50;;
75061;SDS011;63641;46.526;24.612;2023-07-13T07:37:49;5.22;;;4.72;;
75061;SDS011;63641;46.526;24.612;2023-07-13T07:40:16;7.25;;;4.80;;
75061;SDS011;63641;46.526;24.612;2023-07-13T07:42:46;5.72;;;5.15;;
75061;SDS011;63641;46.526;24.612;2023-07-13T07:45:13;6.18;;;5.00;;
75061;SDS011;63641;46.526;24.612;2023-07-13T07:47:40;5.60;;;5.10;;
75061;SDS011;63641;46.526;24.612;2023-07-13T07:50:07;5.38;;;4.80;;
75061;SDS011;63641;46.526;24.612;2023-07-13T07:52:35;5.45;;;4.95;;
75061;SDS011;63641;46.526;24.612;2023-07-13T07:55:01;5.05;;;4.65;;
75061;SDS011;63641;46.526;24.612;2023-07-13T07:57:32;5.13;;;4.55;;
75061;SDS011;63641;46.526;24.612;2023-07-13T08:00:19;5.05;;;4.57;;
75061;SDS011;63641;46.526;24.612;2023-07-13T08:02:49;8.70;;;5.32;;
75061;SDS011;63641;46.526;24.612;2023-07-13T08:05:19;6.03;;;4.90;;
75061;SDS011;63641;46.526;24.612;2023-07-13T08:08:05;5.65;;;4.80;;
75061;SDS011;63641;46.526;24.612;2023-07-13T08:10:32;6.78;;;5.05;;
75061;SDS011;63641;46.526;24.612;2023-07-13T08:13:01;6.78;;;4.93;;
75061;SDS011;63641;46.526;24.612;2023-07-13T08:15:31;6.32;;;4.95;;
75061;SDS011;63641;46.526;24.612;2023-07-13T08:17:58;5.18;;;4.68;;
75061;SDS011;63641;46.526;24.612;2023-07-13T08:20:25;6.53;;;4.60;;
75061;SDS011;63641;46.526;24.612;2023-07-13T08:22:51;6.70;;;4.68;;
75061;SDS011;63641;46.526;24.612;2023-07-13T08:25:18;5.43;;;4.30;;
75061;SDS011;63641;46.526;24.612;2023-07-13T08:27:45;4.93;;;4.22;;
75061;SDS011;63641;46.526;24.612;2023-07-13T08:30:12;5.32;;;4.60;;
75061;SDS011;63641;46.526;24.612;2023-07-13T08:32:39;5.57;;;4.50;;
75061;SDS011;63641;46.526;24.612;2023-07-13T08:35:06;5.97;;;4.68;;
75061;SDS011;63641;46.526;24.612;2023-07-13T08:37:33;7.22;;;4.53;;
75061;SDS011;63641;46.526;24.612;2023-07-13T08:40:00;6.40;;;4.65;;
75061;SDS011;63641;46.526;24.612;2023-07-13T08:42:42;5.95;;;4.93;;
75061;SDS011;63641;46.526;24.612;2023-07-13T08:45:21;4.80;;;4.28;;
75061;SDS011;63641;46.526;24.612;2023-07-13T08:47:49;5.20;;;4.70;;
75061;SDS011;63641;46.526;24.612;2023-07-13T08:50:21;4.82;;;4.43;;
75061;SDS011;63641;46.526;24.612;2023-07-13T08:52:55;5.05;;;4.60;;
75061;SDS011;63641;46.526;24.612;2023-07-13T08:55:30;4.93;;;4.47;;
75061;SDS011;63641;46.526;24.612;2023-07-13T08:58:01;6.18;;;4.75;;
75061;SDS011;63641;46.526;24.612;2023-07-13T09:00:38;5.10;;;4.55;;
75061;SDS011;63641;46.526;24.612;2023-07-13T09:03:29;10.05;;;4.80;;
75061;SDS011;63641;46.526;24.612;2023-07-13T09:06:01;5.65;;;4.78;;
75061;SDS011;63641;46.526;24.612;2023-07-13T09:17:07;5.75;;;4.40;;
75061;SDS011;63641;46.526;24.612;2023-07-13T09:19:41;5.78;;;5.15;;
75061;SDS011;63641;46.526;24.612;2023-07-13T09:22:10;6.18;;;4.63;;
75061;SDS011;63641;46.526;24.612;2023-07-13T09:24:49;7.22;;;4.95;;
75061;SDS011;63641;46.526;24.612;2023-07-13T09:27:25;7.43;;;4.55;;
75061;SDS011;63641;46.526;24.612;2023-07-13T09:30:04;7.63;;;5.00;;
75061;SDS011;63641;46.526;24.612;2023-07-13T09:32:44;5.63;;;5.10;;
75061;SDS011;63641;46.526;24.612;2023-07-13T09:35:20;7.88;;;4.97;;
75061;SDS011;63641;46.526;24.612;2023-07-13T09:38:10;5.15;;;4.38;;
75061;SDS011;63641;46.526;24.612;2023-07-13T09:43:21;5.47;;;4.97;;
75061;SDS011;63641;46.526;24.612;2023-07-13T09:45:48;5.85;;;5.20;;
75061;SDS011;63641;46.526;24.612;2023-07-13T09:48:15;5.18;;;4.68;;
75061;SDS011;63641;46.526;24.612;2023-07-13T09:50:43;5.50;;;4.70;;
75061;SDS011;63641;46.526;24.612;2023-07-13T09:53:18;5.35;;;4.85;;
75061;SDS011;63641;46.526;24.612;2023-07-13T09:55:46;5.20;;;4.70;;
75061;SDS011;63641;46.526;24.612;2023-07-13T09:58:20;7.45;;;4.80;;
75061;SDS011;63641;46.526;24.612;2023-07-13T10:00:54;5.50;;;4.90;;
75061;SDS011;63641;46.526;24.612;2023-07-13T10:05:53;5.63;;;4.55;;
75061;SDS011;63641;46.526;24.612;2023-07-13T10:08:22;8.18;;;4.97;;
75061;SDS011;63641;46.526;24.612;2023-07-13T10:10:58;7.30;;;5.28;;
75061;SDS011;63641;46.526;24.612;2023-07-13T10:13:37;6.78;;;5.50;;
75061;SDS011;63641;46.526;24.612;2023-07-13T10:16:08;5.80;;;5.15;;
75061;SDS011;63641;46.526;24.612;2023-07-13T10:18:43;5.93;;;5.18;;
75061;SDS011;63641;46.526;24.612;2023-07-13T10:21:15;6.07;;;5.40;;
75061;SDS011;63641;46.526;24.612;2023-07-13T10:23:49;5.85;;;5.00;;
75061;SDS011;63641;46.526;24.612;2023-07-13T10:26:26;5.65;;;4.80;;
75061;SDS011;63641;46.526;24.612;2023-07-13T10:28:59;5.85;;;5.00;;
75061;SDS011;63641;46.526;24.612;2023-07-13T10:31:31;5.47;;;4.97;;
75061;SDS011;63641;46.526;24.612;2023-07-13T10:33:58;5.10;;;4.65;;
75061;SDS011;63641;46.526;24.612;2023-07-13T10:36:38;5.60;;;5.10;;
75061;SDS011;63641;46.526;24.612;2023-07-13T10:39:09;5.85;;;5.35;;
75061;SDS011;63641;46.526;24.612;2023-07-13T10:41:43;6.53;;;4.80;;
75061;SDS011;63641;46.526;24.612;2023-07-13T10:44:23;6.35;;;5.03;;
75061;SDS011;63641;46.526;24.612;2023-07-13T10:46:56;6.22;;;5.60;;
75061;SDS011;63641;46.526;24.612;2023-07-13T10:49:31;9.18;;;5.63;;
75061;SDS011;63641;46.526;24.612;2023-07-13T10:51:59;6.50;;;5.20;;
75061;SDS011;63641;46.526;24.612;2023-07-13T10:57:07;7.28;;;5.60;;
75061;SDS011;63641;46.526;24.612;2023-07-13T10:59:35;5.60;;;5.00;;
75061;SDS011;63641;46.526;24.612;2023-07-13T11:04:29;5.18;;;4.68;;
75061;SDS011;63641;46.526;24.612;2023-07-13T11:07:31;6.90;;;5.07;;
75061;SDS011;63641;46.526;24.612;2023-07-13T11:10:45;5.18;;;4.68;;
75061;SDS011;63641;46.526;24.612;2023-07-13T11:13:36;6.28;;;4.90;;
75061;SDS011;63641;46.526;24.612;2023-07-13T11:16:12;5.28;;;4.60;;
75061;SDS011;63641;46.526;24.612;2023-07-13T11:21:29;6.20;;;5.13;;
75061;SDS011;63641;46.526;24.612;2023-07-13T11:24:03;5.03;;;4.55;;
75061;SDS011;63641;46.526;24.612;2023-07-13T11:31:41;5.85;;;4.78;;
75061;SDS011;63641;46.526;24.612;2023-07-13T11:34:12;6.38;;;4.90;;
75061;SDS011;63641;46.526;24.612;2023-07-13T11:36:44;5.32;;;4.47;;
75061;SDS011;63641;46.526;24.612;2023-07-13T11:41:50;6.55;;;4.85;;
75061;SDS011;63641;46.526;24.612;2023-07-13T11:44:20;5.88;;;4.20;;
75061;SDS011;63641;46.526;24.612;2023-07-13T11:46:49;4.45;;;4.05;;
75061;SDS011;63641;46.526;24.612;2023-07-13T11:49:24;5.32;;;4.40;;
75061;SDS011;63641;46.526;24.612;2023-07-13T11:51:53;4.95;;;4.53;;
75061;SDS011;63641;46.526;24.612;2023-07-13T11:54:25;5.05;;;4.30;;
75061;SDS011;63641;46.526;24.612;2023-07-13T11:59:50;6.38;;;3.70;;
75061;SDS011;63641;46.526;24.612;2023-07-13T12:02:38;4.38;;;3.97;;
75061;SDS011;63641;46.526;24.612;2023-07-13T12:05:12;4.43;;;3.67;;
75061;SDS011;63641;46.526;24.612;2023-07-13T12:07:43;6.68;;;3.78;;
75061;SDS011;63641;46.526;24.612;2023-07-13T12:10:20;6.25;;;4.05;;
75061;SDS011;63641;46.526;24.612;2023-07-13T12:12:52;4.30;;;3.30;;
75061;SDS011;63641;46.526;24.612;2023-07-13T12:17:49;5.90;;;3.50;;
75061;SDS011;63641;46.526;24.612;2023-07-13T12:20:23;5.63;;;3.33;;
75061;SDS011;63641;46.526;24.612;2023-07-13T12:22:53;5.95;;;3.65;;
75061;SDS011;63641;46.526;24.612;2023-07-13T12:25:20;4.93;;;3.80;;
75061;SDS011;63641;46.526;24.612;2023-07-13T12:27:56;5.28;;;4.30;;
75061;SDS011;63641;46.526;24.612;2023-07-13T12:30:30;6.10;;;3.90;;
75061;SDS011;63641;46.526;24.612;2023-07-13T12:33:07;5.00;;;3.90;;
75061;SDS011;63641;46.526;24.612;2023-07-13T12:35:48;5.78;;;3.72;;
75061;SDS011;63641;46.526;24.612;2023-07-13T12:38:16;6.32;;;4.38;;
75061;SDS011;63641;46.526;24.612;2023-07-13T12:40:43;4.63;;;3.95;;
75061;SDS011;63641;46.526;24.612;2023-07-13T12:43:12;4.65;;;4.00;;
75061;SDS011;63641;46.526;24.612;2023-07-13T12:46:01;5.68;;;3.50;;
75061;SDS011;63641;46.526;24.612;2023-07-13T12:48:29;4.68;;;4.10;;
75061;SDS011;63641;46.526;24.612;2023-07-13T12:51:14;5.47;;;4.22;;
75061;SDS011;63641;46.526;24.612;2023-07-13T12:53:43;4.70;;;3.70;;
75061;SDS011;63641;46.526;24.612;2023-07-13T12:56:18;4.70;;;4.07;;
75061;SDS011;63641;46.526;24.612;2023-07-13T12:58:49;4.68;;;3.80;;
75061;SDS011;63641;46.526;24.612;2023-07-13T13:01:21;5.47;;;3.88;;
75061;SDS011;63641;46.526;24.612;2023-07-13T13:03:50;4.40;;;4.00;;
75061;SDS011;63641;46.526;24.612;2023-07-13T13:08:46;24.35;;;6.45;;
75061;SDS011;63641;46.526;24.612;2023-07-13T13:11:15;5.82;;;3.97;;
75061;SDS011;63641;46.526;24.612;2023-07-13T13:13:43;8.27;;;3.90;;
75061;SDS011;63641;46.526;24.612;2023-07-13T13:16:19;5.10;;;3.88;;
75061;SDS011;63641;46.526;24.612;2023-07-13T13:18:46;5.30;;;4.10;;
75061;SDS011;63641;46.526;24.612;2023-07-13T13:21:14;6.45;;;4.07;;
75061;SDS011;63641;46.526;24.612;2023-07-13T13:23:42;7.85;;;5.00;;
75061;SDS011;63641;46.526;24.612;2023-07-13T13:26:11;5.68;;;3.97;;
75061;SDS011;63641;46.526;24.612;2023-07-13T13:28:39;5.65;;;3.85;;
75061;SDS011;63641;46.526;24.612;2023-07-13T13:31:07;4.55;;;3.80;;
75061;SDS011;63641;46.526;24.612;2023-07-13T13:33:39;9.48;;;4.15;;
75061;SDS011;63641;46.526;24.612;2023-07-13T13:36:13;4.88;;;4.40;;
75061;SDS011;63641;46.526;24.612;2023-07-13T13:38:41;6.68;;;4.13;;
75061;SDS011;63641;46.526;24.612;2023-07-13T13:41:16;4.53;;;3.94;;
75061;SDS011;63641;46.526;24.612;2023-07-13T13:43:43;5.95;;;4.35;;
75061;SDS011;63641;46.526;24.612;2023-07-13T13:46:21;4.97;;;4.00;;
75061;SDS011;63641;46.526;24.612;2023-07-13T13:48:54;9.02;;;4.70;;
75061;SDS011;63641;46.526;24.612;2023-07-13T13:51:22;8.70;;;3.97;;
75061;SDS011;63641;46.526;24.612;2023-07-13T13:53:54;7.55;;;4.38;;
75061;SDS011;63641;46.526;24.612;2023-07-13T13:56:21;6.78;;;4.43;;
75061;SDS011;63641;46.526;24.612;2023-07-13T13:58:47;6.25;;;4.30;;
75061;SDS011;63641;46.526;24.612;2023-07-13T14:01:19;5.97;;;4.13;;
75061;SDS011;63641;46.526;24.612;2023-07-13T14:03:48;5.03;;;4.18;;
75061;SDS011;63641;46.526;24.612;2023-07-13T14:06:17;5.88;;;4.03;;
75061;SDS011;63641;46.526;24.612;2023-07-13T14:08:44;4.80;;;3.90;;
75061;SDS011;63641;46.526;24.612;2023-07-13T14:11:12;11.45;;;4.82;;
75061;SDS011;63641;46.526;24.612;2023-07-13T14:13:50;4.40;;;3.85;;
75061;SDS011;63641;46.526;24.612;2023-07-13T14:16:22;8.23;;;4.20;;
75061;SDS011;63641;46.526;24.612;2023-07-13T14:18:56;5.07;;;4.30;;
75061;SDS011;63641;46.526;24.612;2023-07-13T14:21:26;6.25;;;4.43;;
75061;SDS011;63641;46.526;24.612;2023-07-13T14:23:56;5.25;;;4.32;;
75061;SDS011;63641;46.526;24.612;2023-07-13T14:26:24;5.03;;;4.20;;
75061;SDS011;63641;46.526;24.612;2023-07-13T14:28:54;6.35;;;3.97;;
75061;SDS011;63641;46.526;24.612;2023-07-13T14:31:24;7.10;;;3.53;;
75061;SDS011;63641;46.526;24.612;2023-07-13T14:33:56;5.40;;;3.42;;
75061;SDS011;63641;46.526;24.612;2023-07-13T14:36:27;4.30;;;3.50;;
75061;SDS011;63641;46.526;24.612;2023-07-13T14:39:04;7.77;;;3.70;;
75061;SDS011;63641;46.526;24.612;2023-07-13T14:41:41;4.47;;;3.22;;
75061;SDS011;63641;46.526;24.612;2023-07-13T14:44:14;7.15;;;3.20;;
75061;SDS011;63641;46.526;24.612;2023-07-13T14:46:42;7.15;;;3.17;;
75061;SDS011;63641;46.526;24.612;2023-07-13T14:51:52;5.70;;;3.28;;
75061;SDS011;63641;46.526;24.612;2023-07-13T14:54:18;6.22;;;3.28;;
75061;SDS011;63641;46.526;24.612;2023-07-13T14:56:45;5.88;;;3.78;;
75061;SDS011;63641;46.526;24.612;2023-07-13T14:59:12;6.15;;;3.20;;
75061;SDS011;63641;46.526;24.612;2023-07-13T15:01:39;6.03;;;3.70;;
75061;SDS011;63641;46.526;24.612;2023-07-13T15:04:06;5.68;;;3.92;;
75061;SDS011;63641;46.526;24.612;2023-07-13T15:06:53;7.47;;;4.30;;
75061;SDS011;63641;46.526;24.612;2023-07-13T15:09:22;5.25;;;3.85;;
75061;SDS011;63641;46.526;24.612;2023-07-13T15:11:55;4.88;;;3.35;;
75061;SDS011;63641;46.526;24.612;2023-07-13T15:14:23;8.57;;;4.95;;
75061;SDS011;63641;46.526;24.612;2023-07-13T15:16:52;8.32;;;3.97;;
75061;SDS011;63641;46.526;24.612;2023-07-13T15:19:22;5.57;;;3.78;;
75061;SDS011;63641;46.526;24.612;2023-07-13T15:21:50;13.77;;;4.75;;
75061;SDS011;63641;46.526;24.612;2023-07-13T15:24:18;5.70;;;3.72;;
75061;SDS011;63641;46.526;24.612;2023-07-13T15:26:47;7.63;;;3.65;;
75061;SDS011;63641;46.526;24.612;2023-07-13T15:29:16;6.40;;;3.90;;
75061;SDS011;63641;46.526;24.612;2023-07-13T15:31:43;5.68;;;3.90;;
75061;SDS011;63641;46.526;24.612;2023-07-13T15:34:11;5.03;;;3.92;;